INFORMACIÓN METAR y TAF
METAR FOR EGLC
ADDS - METARS form results

(0641 UTC 20 January 2020)
Data provider http://aviationweather.gov/metar/data/
 
METAR text: EGLC 200620Z AUTO 23004KT 9999 NCD 03/00 Q1049
Conditions at: EGLC (LONDON CITY AIRP, GB) observed 0620 UTC 20 January 2020
Temperature: 3.0°C (37°F)
Dewpoint: 0.0°C (32°F) [RH = 81%]
Pressure (altimeter): 30.97 inches Hg (1049.0 mb)
Winds: from the SW (230 degrees) at 5 MPH (4 knots; 2.1 m/s)
Visibility: 6 or more miles (10+ km)
Ceiling: at least 12,000 feet AGL
Clouds: sky clear below 12,000 feet AGL
Weather: no significant weather observed at this time

METAR text: EGLC 200550Z AUTO 22003KT 9999 NCD 03/01 Q1049
Conditions at: EGLC (LONDON CITY AIRP, GB) observed 0550 UTC 20 January 2020
Temperature: 3.0°C (37°F)
Dewpoint: 1.0°C (34°F) [RH = 87%]
Pressure (altimeter): 30.97 inches Hg (1049.0 mb)
Winds: from the SW (220 degrees) at 3 MPH (3 knots; 1.5 m/s)
Visibility: 6 or more miles (10+ km)
Ceiling: at least 12,000 feet AGL
Clouds: sky clear below 12,000 feet AGL
Weather: no significant weather observed at this time

Forecast for: EGLC (LONDON CITY AIRP, GB)
Text: TAF EGLC 200505Z 2006/2015 23003KT CAVOK
Forecast period: 0600 to 1500 UTC 20 January 2020
Forecast type: FROM: standard forecast or significant change
Winds: from the SW (230 degrees) at 3 MPH (3 knots; 1.5 m/s)
Visibility: 6 or more miles 10+ km)
Ceiling: unknown
Clouds: missing
Weather: NSW  (no significant weather)
Text: PROB30 2006/2010 7000
Forecast period: 0600 to 1000 UTC 20 January 2020
Forecast type: PROBABLE: 30 percent likelihood of the following during this time
Visibility: 4 miles (7 km)
Ceiling: unknown
Clouds: missing
Weather: no significant weather forecast for this period

MAPA DE AEROPUERTO

INFORMACIÓN DE PISTA
Pista 10 Longitud 4948 ft Ancho 98 ft
Elevación 16 ft Umbral desplazado 358 ft Rumbo de pista 93
Pista 28 Longitud 4948 ft Ancho 98 ft
Elevación 19 ft Umbral desplazado 211 ft Rumbo de pista 273

FRECUANCIAS DEL AEROPUERTO
Tipo APP Nombre APP Frecuencia 132.7 MHZ
Tipo ATIS Nombre ATIS Frecuencia 136.35 MHZ
Tipo GND Nombre GND Frecuencia 121.825 MHZ
Tipo TWR Nombre TWR Frecuencia 118.075 MHZ

RADIO AYUDAS DEL AEROPUERTO
Tipo NDB Nombre City Frecuencia 322 KHZ